createdAt,value
2022-10-19T00:02:14.310Z,80.40
2022-10-19T00:04:41.136Z,80.37
2022-10-19T00:07:08.054Z,80.50
2022-10-19T00:09:34.901Z,80.28
2022-10-19T00:12:01.734Z,80.25
2022-10-19T00:14:28.640Z,80.19
2022-10-19T00:16:56.338Z,80.25
2022-10-19T00:19:26.246Z,79.90
2022-10-19T00:21:53.655Z,80.15
2022-10-19T00:24:21.488Z,80.07
2022-10-19T00:26:48.434Z,80.16
2022-10-19T00:29:15.454Z,80.11
2022-10-19T00:31:43.013Z,80.21
2022-10-19T00:34:10.238Z,80.17
2022-10-19T00:36:39.931Z,80.24
2022-10-19T00:39:10.905Z,80.43
2022-10-19T00:41:39.015Z,81.10
2022-10-19T00:44:05.838Z,81.23
2022-10-19T00:46:38.250Z,81.74
2022-10-19T00:49:10.874Z,81.65
2022-10-19T00:51:41.856Z,81.29
2022-10-19T00:54:09.416Z,80.99
2022-10-19T00:56:40.792Z,81.19
2022-10-19T00:59:08.966Z,81.04
2022-10-19T01:01:36.166Z,81.17
2022-10-19T01:04:04.668Z,81.33
2022-10-19T01:06:32.988Z,81.42
2022-10-19T01:09:00.329Z,81.75
2022-10-19T01:11:47.370Z,82.03
2022-10-19T01:14:33.077Z,82.13
2022-10-19T01:17:44.733Z,82.49
2022-10-19T01:20:52.803Z,82.13
2022-10-19T01:23:41.311Z,82.39
2022-10-19T01:26:41.973Z,82.68
2022-10-19T01:29:33.207Z,82.68
2022-10-19T01:32:09.187Z,82.85
2022-10-19T01:34:45.130Z,82.83
2022-10-19T01:37:17.576Z,82.94
2022-10-19T01:40:04.226Z,83.14
2022-10-19T01:42:43.047Z,83.51
2022-10-19T01:45:18.981Z,83.41
2022-10-19T01:47:55.475Z,83.81
2022-10-19T01:50:40.926Z,83.79
2022-10-19T01:53:10.439Z,83.84
2022-10-19T01:55:42.782Z,83.87
2022-10-19T01:58:12.556Z,84.14
2022-10-19T02:00:42.723Z,84.07
2022-10-19T02:03:11.753Z,84.28
2022-10-19T02:05:39.870Z,84.63
2022-10-19T02:08:15.083Z,84.80
2022-10-19T02:10:44.608Z,84.63
2022-10-19T02:13:15.014Z,84.84
2022-10-19T02:15:50.873Z,84.60
2022-10-19T02:18:22.633Z,84.58
2022-10-19T02:20:49.507Z,84.53
2022-10-19T02:23:19.206Z,84.77
2022-10-19T02:25:46.508Z,85.03
2022-10-19T02:28:13.436Z,85.41
2022-10-19T02:30:40.378Z,85.29
2022-10-19T02:33:07.966Z,85.38
2022-10-19T02:35:35.119Z,85.48
2022-10-19T02:38:04.069Z,85.64
2022-10-19T02:40:34.867Z,85.67
2022-10-19T02:43:06.003Z,85.64
2022-10-19T02:45:37.271Z,85.55
2022-10-19T02:48:09.896Z,85.47
2022-10-19T02:50:36.755Z,85.57
2022-10-19T02:53:03.899Z,85.58
2022-10-19T02:55:31.302Z,85.64
2022-10-19T02:57:58.247Z,85.80
2022-10-19T03:00:25.109Z,85.38
2022-10-19T03:02:51.903Z,85.32
2022-10-19T03:05:18.729Z,85.19
2022-10-19T03:07:45.499Z,85.38
2022-10-19T03:10:12.373Z,85.16
2022-10-19T03:12:39.209Z,85.19
2022-10-19T03:15:07.888Z,85.11
2022-10-19T03:17:34.935Z,85.29
2022-10-19T03:20:01.890Z,85.15
2022-10-19T03:22:28.667Z,85.14
2022-10-19T03:24:55.526Z,85.16
2022-10-19T03:27:22.322Z,85.06
2022-10-19T03:29:49.133Z,85.04
2022-10-19T03:32:15.866Z,85.00
2022-10-19T03:34:42.751Z,84.98
2022-10-19T03:37:09.725Z,84.67
2022-10-19T03:39:36.526Z,84.65
2022-10-19T03:42:03.361Z,84.82
2022-10-19T03:44:30.163Z,84.78
2022-10-19T03:46:56.925Z,84.73
2022-10-19T03:49:23.830Z,84.65
2022-10-19T03:51:50.639Z,84.44
2022-10-19T03:54:17.910Z,84.31
2022-10-19T03:56:44.857Z,84.26
2022-10-19T03:59:14.722Z,84.28
2022-10-19T04:01:44.635Z,84.16
2022-10-19T04:04:16.660Z,84.10
2022-10-19T04:06:46.243Z,84.03
2022-10-19T04:09:15.724Z,83.91
2022-10-19T04:11:43.087Z,83.81
2022-10-19T04:14:22.700Z,83.76
2022-10-19T04:16:59.103Z,83.59
2022-10-19T04:19:26.203Z,83.57
2022-10-19T04:21:53.034Z,83.52
2022-10-19T04:24:19.895Z,83.48
2022-10-19T04:26:52.359Z,83.43
2022-10-19T04:29:23.684Z,83.30
2022-10-19T04:31:53.610Z,83.26
2022-10-19T04:34:20.676Z,83.18
2022-10-19T04:36:47.511Z,83.20
2022-10-19T04:39:14.361Z,83.13
2022-10-19T04:41:41.310Z,83.07
2022-10-19T04:44:08.120Z,82.97
2022-10-19T04:46:35.408Z,83.07
2022-10-19T04:49:04.279Z,83.00
2022-10-19T04:51:31.337Z,82.98
2022-10-19T04:53:59.662Z,83.06
2022-10-19T04:56:27.885Z,82.99
2022-10-19T04:58:59.128Z,82.94
2022-10-19T05:01:27.629Z,82.94
2022-10-19T05:03:59.943Z,82.91
2022-10-19T05:06:27.187Z,82.98
2022-10-19T05:08:54.032Z,82.94
2022-10-19T05:11:21.254Z,82.96
2022-10-19T05:13:48.278Z,83.13
2022-10-19T05:16:19.081Z,83.13
2022-10-19T05:18:56.818Z,83.08
2022-10-19T05:21:23.871Z,82.84
2022-10-19T05:23:55.358Z,83.04
2022-10-19T05:26:24.502Z,83.08
2022-10-19T05:28:56.988Z,83.16
2022-10-19T05:31:27.079Z,83.12
2022-10-19T05:33:56.253Z,82.97
2022-10-19T05:36:26.298Z,82.99
2022-10-19T05:38:55.467Z,82.90
2022-10-19T05:41:23.428Z,82.68
2022-10-19T05:43:59.280Z,82.67
2022-10-19T05:46:28.064Z,82.50
2022-10-19T05:48:56.544Z,82.46
2022-10-19T05:51:24.624Z,82.53
2022-10-19T05:53:53.512Z,82.31
2022-10-19T05:56:22.464Z,82.28
2022-10-19T05:58:49.933Z,82.27
2022-10-19T06:01:19.187Z,82.17
2022-10-19T06:03:47.178Z,82.25
2022-10-19T06:06:14.281Z,82.04
2022-10-19T06:08:41.137Z,81.66
2022-10-19T06:11:14.832Z,81.87
2022-10-19T06:13:43.173Z,81.56
2022-10-19T06:16:11.869Z,81.44
2022-10-19T06:18:40.234Z,81.35
2022-10-19T06:21:12.679Z,80.78
2022-10-19T06:23:39.653Z,80.45
2022-10-19T06:26:08.948Z,80.48
2022-10-19T06:28:37.246Z,80.45
2022-10-19T06:31:07.133Z,80.22
2022-10-19T06:33:36.553Z,80.49
2022-10-19T06:36:10.755Z,80.14
2022-10-19T06:38:37.667Z,79.81
2022-10-19T06:41:04.813Z,79.83
2022-10-19T06:43:32.193Z,79.72
2022-10-19T06:45:59.520Z,79.68
2022-10-19T06:48:26.470Z,79.78
2022-10-19T06:50:58.128Z,79.74
2022-10-19T06:53:25.081Z,79.53
2022-10-19T06:55:51.834Z,79.61
2022-10-19T06:58:18.800Z,79.41
2022-10-19T07:00:45.610Z,79.39
2022-10-19T07:03:12.699Z,79.60
2022-10-19T07:05:39.469Z,79.28
2022-10-19T07:08:06.503Z,77.03
2022-10-19T07:10:33.266Z,77.54
2022-10-19T07:13:00.136Z,77.69
2022-10-19T07:15:27.067Z,77.90
2022-10-19T07:17:54.042Z,78.08
2022-10-19T07:20:20.792Z,77.69
2022-10-19T07:22:47.611Z,77.80
2022-10-19T07:25:14.584Z,77.93
2022-10-19T07:27:41.846Z,78.07
2022-10-19T07:30:09.121Z,78.14
2022-10-19T07:32:36.122Z,78.19
2022-10-19T07:35:03.043Z,78.16
2022-10-19T07:37:29.934Z,78.17
2022-10-19T07:39:56.685Z,77.90
2022-10-19T07:42:23.559Z,77.87
2022-10-19T07:44:50.294Z,78.05
2022-10-19T07:47:17.197Z,77.66
2022-10-19T07:49:44.073Z,77.53
2022-10-19T07:52:10.916Z,77.49
2022-10-19T07:54:37.706Z,77.66
2022-10-19T07:57:04.622Z,77.74
2022-10-19T07:59:31.458Z,77.91
2022-10-19T08:01:59.977Z,77.74
2022-10-19T08:07:13.773Z,77.79
2022-10-19T08:09:52.910Z,77.75
2022-10-19T08:12:20.666Z,77.76
2022-10-19T08:14:48.178Z,77.69
2022-10-19T08:17:17.631Z,77.50
2022-10-19T08:19:46.283Z,77.63
2022-10-19T08:22:13.358Z,77.71
2022-10-19T08:24:40.156Z,77.63
2022-10-19T08:27:06.993Z,77.45
2022-10-19T08:29:33.744Z,77.35
2022-10-19T08:32:00.673Z,77.50
2022-10-19T08:34:27.531Z,77.41
2022-10-19T08:36:54.407Z,77.49
2022-10-19T08:39:21.258Z,77.73
2022-10-19T08:42:06.611Z,77.58
2022-10-19T08:44:58.371Z,77.55
2022-10-19T08:47:43.231Z,77.29
2022-10-19T08:50:23.791Z,77.25
2022-10-19T08:53:02.413Z,77.44
2022-10-19T08:55:50.655Z,77.53
2022-10-19T08:59:01.188Z,77.66
2022-10-19T09:01:54.501Z,77.79
2022-10-19T09:04:26.299Z,77.82
2022-10-19T09:07:02.116Z,77.76
2022-10-19T09:09:30.661Z,78.13
2022-10-19T09:12:04.171Z,78.33
2022-10-19T09:14:49.603Z,78.47
2022-10-19T09:17:17.209Z,78.52
2022-10-19T09:19:44.064Z,78.62
2022-10-19T09:22:29.425Z,78.59
2022-10-19T09:25:08.733Z,78.68
2022-10-19T09:27:39.505Z,78.85
2022-10-19T09:30:17.677Z,78.85
2022-10-19T09:32:44.771Z,78.72
2022-10-19T09:35:33.904Z,78.72
2022-10-19T09:38:01.221Z,78.80
2022-10-19T09:40:30.091Z,78.77
2022-10-19T09:42:58.326Z,78.79
2022-10-19T09:45:43.197Z,78.49
2022-10-19T09:48:20.599Z,78.18
2022-10-19T09:50:55.214Z,78.34
2022-10-19T09:53:22.565Z,78.03
2022-10-19T09:55:58.935Z,77.86
2022-10-19T09:58:32.097Z,77.89
2022-10-19T10:01:01.171Z,77.85
2022-10-19T10:03:43.387Z,77.79
2022-10-19T10:06:14.730Z,77.60
2022-10-19T10:08:52.682Z,77.69
2022-10-19T10:11:27.827Z,77.34
2022-10-19T10:13:56.321Z,77.24
2022-10-19T10:16:24.908Z,77.39
2022-10-19T10:19:07.244Z,77.33
2022-10-19T10:21:55.713Z,77.51
2022-10-19T10:24:31.666Z,77.67
2022-10-19T10:27:04.300Z,78.05
2022-10-19T10:29:35.689Z,78.04
2022-10-19T10:32:09.188Z,78.14
2022-10-19T10:34:49.410Z,78.21
2022-10-19T10:37:28.397Z,78.39
2022-10-19T10:40:00.544Z,78.42
2022-10-19T10:42:43.602Z,78.60
2022-10-19T10:45:24.316Z,78.63
2022-10-19T10:47:51.922Z,78.53
2022-10-19T10:50:25.695Z,78.47
2022-10-19T10:53:48.036Z,78.31
2022-10-19T10:56:34.108Z,78.13
2022-10-19T10:59:07.672Z,78.01
2022-10-19T11:01:41.635Z,78.01
2022-10-19T11:04:20.297Z,78.14
2022-10-19T11:07:01.896Z,77.56
2022-10-19T11:09:43.604Z,77.47
2022-10-19T11:12:14.782Z,77.47
2022-10-19T11:15:04.780Z,77.39
2022-10-19T11:17:36.741Z,77.53
2022-10-19T11:20:07.338Z,77.23
2022-10-19T11:22:53.758Z,76.92
2022-10-19T11:25:31.755Z,76.79
2022-10-19T11:28:20.424Z,76.87
2022-10-19T11:31:20.841Z,76.68
2022-10-19T11:34:16.489Z,76.76
2022-10-19T11:37:05.681Z,76.78
2022-10-19T11:39:56.543Z,76.73
2022-10-19T11:42:41.661Z,76.53
2022-10-19T11:45:32.403Z,76.51
2022-10-19T11:48:14.837Z,76.64
2022-10-19T11:50:54.275Z,76.86
2022-10-19T11:53:57.625Z,76.70
2022-10-19T11:57:03.173Z,76.86
2022-10-19T11:59:36.597Z,76.78
2022-10-19T12:02:27.525Z,76.69
2022-10-19T12:05:13.194Z,76.75
2022-10-19T12:08:04.673Z,76.65
2022-10-19T12:10:43.223Z,76.85
2022-10-19T12:13:15.460Z,76.85
2022-10-19T12:15:46.679Z,77.01
2022-10-19T12:18:21.020Z,76.76
2022-10-19T12:20:51.896Z,77.15
2022-10-19T12:23:25.233Z,77.14
2022-10-19T12:25:55.036Z,77.02
2022-10-19T12:28:27.917Z,77.11
2022-10-19T12:30:55.743Z,76.90
2022-10-19T12:33:49.459Z,77.15
2022-10-19T12:36:34.702Z,77.34
2022-10-19T12:39:13.506Z,77.34
2022-10-19T12:41:52.665Z,77.43
2022-10-19T12:44:56.261Z,77.34
2022-10-19T12:47:26.101Z,77.50
2022-10-19T12:49:55.689Z,77.63
2022-10-19T12:52:45.670Z,77.59
2022-10-19T12:55:15.789Z,77.60
2022-10-19T12:57:57.919Z,77.34
2022-10-19T13:00:28.802Z,77.48
2022-10-19T13:03:15.102Z,77.73
2022-10-19T13:05:42.335Z,77.56
2022-10-19T13:08:12.260Z,77.15
2022-10-19T13:10:41.513Z,77.27
2022-10-19T13:13:46.746Z,77.32
2022-10-19T13:16:28.670Z,77.10
2022-10-19T13:19:13.895Z,77.24
2022-10-19T13:22:00.615Z,77.29
2022-10-19T13:24:29.351Z,77.15
2022-10-19T13:27:02.591Z,76.98
2022-10-19T13:29:39.087Z,77.03
2022-10-19T13:32:37.834Z,76.53
2022-10-19T13:35:25.322Z,76.54
2022-10-19T13:38:16.345Z,76.06
2022-10-19T13:40:49.488Z,76.44
2022-10-19T13:43:51.777Z,76.37
2022-10-19T13:46:30.690Z,76.07
2022-10-19T13:49:15.782Z,75.81
2022-10-19T13:52:20.659Z,75.67
2022-10-19T13:54:50.654Z,75.41
2022-10-19T13:57:35.981Z,75.25
2022-10-19T14:00:11.917Z,75.37
2022-10-19T14:02:41.383Z,75.59
2022-10-19T14:05:31.038Z,75.60
2022-10-19T14:08:06.710Z,75.60
2022-10-19T14:10:56.295Z,75.73
2022-10-19T14:13:22.446Z,75.54
2022-10-19T14:15:55.118Z,75.52
2022-10-19T14:18:29.098Z,75.52
2022-10-19T14:21:01.855Z,75.26
2022-10-19T14:23:31.526Z,75.00
2022-10-19T14:25:59.587Z,75.39
2022-10-19T14:28:27.939Z,75.57
2022-10-19T14:30:57.650Z,75.70
2022-10-19T14:33:26.022Z,75.57
2022-10-19T14:35:53.770Z,75.79
2022-10-19T14:38:45.345Z,75.79
2022-10-19T14:44:28.068Z,76.36
2022-10-19T14:46:55.507Z,76.61
2022-10-19T14:49:22.463Z,76.70
2022-10-19T14:51:58.162Z,76.74
2022-10-19T14:54:32.245Z,76.63
2022-10-19T14:57:11.407Z,76.68
2022-10-19T14:59:47.395Z,76.78
2022-10-19T15:02:28.073Z,76.66
2022-10-19T15:04:56.995Z,76.62
2022-10-19T15:07:44.065Z,76.68
2022-10-19T15:10:26.693Z,76.73
2022-10-19T15:13:02.232Z,76.64
2022-10-19T15:15:32.253Z,76.98
2022-10-19T15:18:02.335Z,76.53
2022-10-19T15:20:43.989Z,76.40
2022-10-19T15:23:34.376Z,76.41
2022-10-19T15:26:03.635Z,76.42
2022-10-19T15:28:41.390Z,76.52
2022-10-19T15:31:25.355Z,76.69
2022-10-19T15:34:00.577Z,76.59
2022-10-19T15:36:30.074Z,76.63
2022-10-19T15:39:24.531Z,76.71
2022-10-19T15:41:52.418Z,76.42
2022-10-19T15:44:34.272Z,76.46
2022-10-19T15:47:19.467Z,76.63
2022-10-19T15:49:52.011Z,76.49
2022-10-19T15:52:21.032Z,76.37
2022-10-19T15:54:52.287Z,76.57
2022-10-19T15:57:33.380Z,76.34
2022-10-19T16:00:17.692Z,76.47
2022-10-19T16:02:44.784Z,76.28
2022-10-19T16:05:11.746Z,76.18
2022-10-19T16:07:41.345Z,76.20
2022-10-19T16:10:14.404Z,76.18
2022-10-19T16:12:41.333Z,76.24
2022-10-19T16:15:12.471Z,76.31
2022-10-19T16:17:40.361Z,76.28
2022-10-19T16:20:07.475Z,76.48
2022-10-19T16:22:34.380Z,76.31
2022-10-19T16:25:01.159Z,76.28
2022-10-19T16:27:28.257Z,76.40
2022-10-19T16:29:55.069Z,76.44
2022-10-19T16:32:22.012Z,76.49
2022-10-19T16:34:48.837Z,76.34
2022-10-19T16:37:15.772Z,76.25
2022-10-19T16:39:42.665Z,76.30
2022-10-19T16:42:09.802Z,76.55
2022-10-19T16:44:36.671Z,76.65
2022-10-19T16:47:04.086Z,76.76
2022-10-19T16:49:31.248Z,76.68
2022-10-19T16:51:58.468Z,76.60
2022-10-19T16:54:26.819Z,76.47
2022-10-19T16:56:55.615Z,76.25
2022-10-19T16:59:22.923Z,76.36
2022-10-19T17:01:50.005Z,76.24
2022-10-19T17:04:20.077Z,76.41
2022-10-19T17:06:46.989Z,76.37
2022-10-19T17:09:40.272Z,76.27
2022-10-19T17:12:00.942Z,76.29
2022-10-19T17:14:27.830Z,76.28
2022-10-19T17:16:54.696Z,76.36
2022-10-19T17:19:21.583Z,76.45
2022-10-19T17:21:49.508Z,76.63
2022-10-19T17:24:21.868Z,76.62
2022-10-19T17:26:51.153Z,76.82
2022-10-19T17:29:18.678Z,76.73
2022-10-19T17:31:46.048Z,76.84
2022-10-19T17:34:12.970Z,76.81
2022-10-19T17:36:44.354Z,76.82
2022-10-19T17:39:14.705Z,76.88
2022-10-19T17:41:41.585Z,76.98
2022-10-19T17:44:08.374Z,76.96
2022-10-19T17:46:35.784Z,76.96
2022-10-19T17:49:03.639Z,77.03
2022-10-19T17:51:32.761Z,77.01
2022-10-19T17:54:08.404Z,77.40
2022-10-19T17:56:36.523Z,77.39
2022-10-19T17:59:04.496Z,77.55
2022-10-19T18:01:31.530Z,77.94
2022-10-19T18:03:58.697Z,78.13
2022-10-19T18:06:29.736Z,78.21
2022-10-19T18:08:58.437Z,78.51
2022-10-19T18:11:28.690Z,78.47
2022-10-19T18:13:58.913Z,78.76
2022-10-19T18:16:29.013Z,79.00
2022-10-19T18:18:58.787Z,79.27
2022-10-19T18:21:31.504Z,79.12
2022-10-19T18:23:59.976Z,79.46
2022-10-19T18:26:29.567Z,79.54
2022-10-19T18:28:58.681Z,79.85
2022-10-19T18:31:30.750Z,79.93
2022-10-19T18:34:03.383Z,79.97
2022-10-19T18:36:30.910Z,79.88
2022-10-19T18:39:00.501Z,79.69
2022-10-19T18:41:28.434Z,79.53
2022-10-19T18:44:05.108Z,79.77
2022-10-19T18:46:34.338Z,80.22
2022-10-19T18:49:02.289Z,80.87
2022-10-19T18:51:29.443Z,81.26
2022-10-19T18:53:56.225Z,81.35
2022-10-19T18:56:23.496Z,81.45
2022-10-19T18:58:51.223Z,81.82
2022-10-19T19:01:27.125Z,82.15
2022-10-19T19:03:56.692Z,82.36
2022-10-19T19:06:26.170Z,82.48
2022-10-19T19:08:57.997Z,83.04
2022-10-19T19:11:29.576Z,83.00
2022-10-19T19:14:01.287Z,82.97
2022-10-19T19:16:30.374Z,82.89
2022-10-19T19:18:57.362Z,82.73
2022-10-19T19:21:27.554Z,82.92
2022-10-19T19:23:56.327Z,82.94
2022-10-19T19:26:26.459Z,82.91
2022-10-19T19:28:53.389Z,82.97
2022-10-19T19:31:20.938Z,83.26
2022-10-19T19:33:48.188Z,83.50
2022-10-19T19:36:17.499Z,83.62
2022-10-19T19:38:45.704Z,83.55
2022-10-19T19:41:14.256Z,83.43
2022-10-19T19:43:42.655Z,83.36
2022-10-19T19:46:13.656Z,83.22
2022-10-19T19:48:42.662Z,83.35
2022-10-19T19:51:11.865Z,83.21
2022-10-19T19:53:40.647Z,83.14
2022-10-19T19:56:09.507Z,83.07
2022-10-19T19:58:36.692Z,83.10
2022-10-19T20:01:13.658Z,83.20
2022-10-19T20:03:41.894Z,83.00
2022-10-19T20:06:09.225Z,82.78
2022-10-19T20:08:37.347Z,82.75
2022-10-19T20:11:09.421Z,82.94
2022-10-19T20:13:37.311Z,82.84
2022-10-19T20:16:21.694Z,82.73
2022-10-19T20:18:54.704Z,82.47
2022-10-19T20:21:24.023Z,82.49
2022-10-19T20:23:50.961Z,82.52
2022-10-19T20:26:19.882Z,82.68
2022-10-19T20:28:47.229Z,82.77
2022-10-19T20:31:14.589Z,83.06
2022-10-19T20:33:42.768Z,82.95
2022-10-19T20:36:27.522Z,83.25
2022-10-19T20:38:56.836Z,83.47
2022-10-19T20:41:26.725Z,83.26
2022-10-19T20:43:54.383Z,83.34
2022-10-19T20:46:23.798Z,83.14
2022-10-19T20:48:52.163Z,82.97
2022-10-19T20:51:30.607Z,82.74
2022-10-19T20:54:01.469Z,82.52
2022-10-19T20:56:34.077Z,82.36
2022-10-19T20:59:04.291Z,82.33
2022-10-19T21:01:33.848Z,82.27
2022-10-19T21:04:04.666Z,82.09
2022-10-19T21:06:33.822Z,82.04
2022-10-19T21:09:01.118Z,81.91
2022-10-19T21:11:30.713Z,81.81
2022-10-19T21:14:00.534Z,81.67
2022-10-19T21:16:30.204Z,81.36
2022-10-19T21:18:57.429Z,81.11
2022-10-19T21:21:29.391Z,80.88
2022-10-19T21:23:59.374Z,80.73
2022-10-19T21:26:28.070Z,80.55
2022-10-19T21:28:55.740Z,80.26
2022-10-19T21:31:25.043Z,80.36
2022-10-19T21:33:52.653Z,80.29
2022-10-19T21:36:21.141Z,80.07
2022-10-19T21:38:48.499Z,79.94
2022-10-19T21:41:23.727Z,79.93
2022-10-19T21:43:53.720Z,79.72
2022-10-19T21:46:22.177Z,79.60
2022-10-19T21:48:49.430Z,79.63
2022-10-19T21:51:31.867Z,79.61
2022-10-19T21:53:59.130Z,79.56
2022-10-19T21:56:26.115Z,79.24
2022-10-19T21:58:54.435Z,79.06
2022-10-19T22:01:26.078Z,79.18
2022-10-19T22:04:05.052Z,79.23
2022-10-19T22:06:34.516Z,79.23
2022-10-19T22:09:03.973Z,79.22
2022-10-19T22:11:31.405Z,79.20
2022-10-19T22:14:00.169Z,79.03
2022-10-19T22:16:29.159Z,78.95
2022-10-19T22:18:56.616Z,79.01
2022-10-19T22:21:28.807Z,78.90
2022-10-19T22:24:00.844Z,79.02
2022-10-19T22:26:31.302Z,78.93
2022-10-19T22:28:59.989Z,78.72
2022-10-19T22:31:28.713Z,78.58
2022-10-19T22:33:56.051Z,78.63
2022-10-19T22:36:22.938Z,78.41
2022-10-19T22:38:49.793Z,78.10
2022-10-19T22:41:16.609Z,77.82
2022-10-19T22:43:43.592Z,77.60
2022-10-19T22:46:10.526Z,77.64
2022-10-19T22:48:37.537Z,77.80
2022-10-19T22:51:04.357Z,77.89
2022-10-19T22:53:31.326Z,78.21
2022-10-19T22:55:58.124Z,78.43
2022-10-19T22:58:24.967Z,78.50
2022-10-19T23:01:07.352Z,78.62
2022-10-19T23:03:34.349Z,78.80
2022-10-19T23:06:01.445Z,78.86
2022-10-19T23:08:28.400Z,78.79
2022-10-19T23:10:55.333Z,78.71
2022-10-19T23:13:22.381Z,78.67
2022-10-19T23:15:50.694Z,78.72
2022-10-19T23:18:17.978Z,78.74
2022-10-19T23:20:53.975Z,78.70
2022-10-19T23:23:21.014Z,78.59
2022-10-19T23:26:01.966Z,78.75
2022-10-19T23:28:29.975Z,78.79
2022-10-19T23:30:58.561Z,78.80
2022-10-19T23:33:26.122Z,78.79
2022-10-19T23:35:52.923Z,78.66
2022-10-19T23:38:19.774Z,78.77
2022-10-19T23:40:46.516Z,78.87
2022-10-19T23:43:13.401Z,78.79
2022-10-19T23:45:40.146Z,78.68
2022-10-19T23:48:07.057Z,78.65
2022-10-19T23:50:33.834Z,78.74
2022-10-19T23:53:00.749Z,78.82
2022-10-19T23:55:27.620Z,78.78
2022-10-19T23:57:54.551Z,78.73
